createdAt,value
2023-02-06T00:00:28.566Z,99657.97
2023-02-06T00:02:59.226Z,99654.04
2023-02-06T00:05:29.260Z,99647.86
2023-02-06T00:07:59.113Z,99651.19
2023-02-06T00:10:29.464Z,99652.29
2023-02-06T00:12:59.500Z,99649.17
2023-02-06T00:15:29.544Z,99658.82
2023-02-06T00:17:59.602Z,99656.61
2023-02-06T00:20:29.902Z,99650.48
2023-02-06T00:23:00.048Z,99648.95
2023-02-06T00:25:30.101Z,99651.38
2023-02-06T00:28:00.128Z,99655.14
2023-02-06T00:30:30.287Z,99656.69
2023-02-06T00:33:00.258Z,99647.23
2023-02-06T00:35:30.877Z,99649.80
2023-02-06T00:38:02.081Z,99650.78
2023-02-06T00:40:32.258Z,99650.86
2023-02-06T00:43:02.776Z,99648.80
2023-02-06T00:45:33.307Z,99649.54
2023-02-06T00:48:04.632Z,99649.67
2023-02-06T00:50:34.791Z,99651.71
2023-02-06T00:53:05.270Z,99653.58
2023-02-06T00:55:35.596Z,99651.36
2023-02-06T00:58:05.768Z,99653.64
2023-02-06T01:00:35.970Z,99650.35
2023-02-06T01:03:06.109Z,99648.07
2023-02-06T01:05:36.298Z,99648.64
2023-02-06T01:08:06.476Z,99638.58
2023-02-06T01:10:36.607Z,99633.33
2023-02-06T01:13:06.584Z,99633.30
2023-02-06T01:15:37.729Z,99625.56
2023-02-06T01:18:08.045Z,99620.33
2023-02-06T01:20:39.762Z,99627.39
2023-02-06T01:23:10.182Z,99621.59
2023-02-06T01:25:40.489Z,99617.06
2023-02-06T01:28:11.856Z,99618.92
2023-02-06T01:31:02.196Z,99624.44
2023-02-06T01:33:32.361Z,99622.91
2023-02-06T01:36:02.611Z,99622.38
2023-02-06T01:38:33.298Z,99618.92
2023-02-06T01:41:04.669Z,99623.12
2023-02-06T01:43:38.142Z,99616.25
2023-02-06T01:46:09.089Z,99614.64
2023-02-06T01:48:41.829Z,99619.88
2023-02-06T01:51:17.544Z,99608.48
2023-02-06T01:53:50.411Z,99607.81
2023-02-06T01:56:21.601Z,99612.88
2023-02-06T01:58:55.584Z,99604.35
2023-02-06T02:01:26.361Z,99603.69
2023-02-06T02:04:02.174Z,99610.23
2023-02-06T02:06:33.021Z,99600.17
2023-02-06T02:09:04.450Z,99597.62
2023-02-06T02:11:37.766Z,99600.53
2023-02-06T02:14:10.602Z,99587.05
2023-02-06T02:16:51.757Z,99578.48
2023-02-06T02:20:06.986Z,99579.84
2023-02-06T02:22:52.337Z,99572.47
2023-02-06T02:26:07.090Z,99574.56
2023-02-06T02:29:26.815Z,99579.95
2023-02-06T02:32:21.572Z,99583.55
2023-02-06T02:35:07.838Z,99580.80
2023-02-06T02:37:50.322Z,99578.50
2023-02-06T02:40:27.241Z,99575.83
2023-02-06T02:43:09.490Z,99569.05
2023-02-06T02:45:46.620Z,99568.16
2023-02-06T02:48:20.384Z,99566.60
2023-02-06T02:50:49.946Z,99567.61
2023-02-06T02:53:19.935Z,99568.91
2023-02-06T02:55:50.369Z,99566.85
2023-02-06T02:58:27.454Z,99559.03
2023-02-06T03:01:02.706Z,99553.98
2023-02-06T03:03:35.424Z,99565.09
2023-02-06T03:06:27.481Z,99566.73
2023-02-06T03:09:04.037Z,99553.24
2023-02-06T03:11:37.321Z,99555.80
2023-02-06T03:14:16.681Z,99553.05
2023-02-06T03:16:52.162Z,99543.49
2023-02-06T03:19:28.209Z,99550.75
2023-02-06T03:21:58.362Z,99555.10
2023-02-06T03:24:33.102Z,99557.58
2023-02-06T03:27:07.243Z,99561.02
2023-02-06T03:29:41.494Z,99562.90
2023-02-06T03:32:16.893Z,99565.59
2023-02-06T03:34:54.008Z,99572.70
2023-02-06T03:37:25.370Z,99575.21
2023-02-06T03:39:57.871Z,99573.55
2023-02-06T03:42:29.644Z,99574.23
2023-02-06T03:45:02.742Z,99571.20
2023-02-06T03:47:34.397Z,99579.04
2023-02-06T03:50:06.718Z,99579.20
2023-02-06T03:52:40.523Z,99575.45
2023-02-06T03:55:14.233Z,99575.79
2023-02-06T03:57:45.115Z,99579.56
2023-02-06T04:00:17.068Z,99578.56
2023-02-06T04:02:48.090Z,99576.46
2023-02-06T04:05:19.845Z,99577.82
2023-02-06T04:07:52.497Z,99580.74
2023-02-06T04:10:23.946Z,99575.73
2023-02-06T04:12:55.516Z,99574.58
2023-02-06T04:15:25.691Z,99574.95
2023-02-06T04:18:01.307Z,99575.44
2023-02-06T04:20:32.248Z,99572.18
2023-02-06T04:23:02.178Z,99569.38
2023-02-06T04:25:32.125Z,99574.93
2023-02-06T04:28:02.309Z,99575.59
2023-02-06T04:30:32.577Z,99574.11
2023-02-06T04:33:02.706Z,99576.45
2023-02-06T04:35:33.156Z,99584.65
2023-02-06T04:38:03.656Z,99586.90
2023-02-06T04:40:33.570Z,99585.36
2023-02-06T04:43:03.610Z,99591.65
2023-02-06T04:45:34.395Z,99592.29
2023-02-06T04:48:05.058Z,99589.25
2023-02-06T04:50:34.930Z,99589.38
2023-02-06T04:53:04.708Z,99581.02
2023-02-06T04:55:36.946Z,99580.59
2023-02-06T04:58:07.167Z,99580.34
2023-02-06T05:00:38.750Z,99581.39
2023-02-06T05:03:08.791Z,99577.63
2023-02-06T05:05:38.922Z,99578.23
2023-02-06T05:08:08.852Z,99583.59
2023-02-06T05:10:38.871Z,99580.91
2023-02-06T05:13:08.983Z,99580.05
2023-02-06T05:15:39.775Z,99585.27
2023-02-06T05:18:10.105Z,99582.40
2023-02-06T05:20:40.324Z,99587.70
2023-02-06T05:23:10.650Z,99588.34
2023-02-06T05:25:42.269Z,99588.53
2023-02-06T05:28:12.652Z,99593.01
2023-02-06T05:30:43.143Z,99594.45
2023-02-06T05:33:13.404Z,99595.21
2023-02-06T05:35:43.606Z,99598.21
2023-02-06T05:38:14.413Z,99596.39
2023-02-06T05:40:45.343Z,99600.83
2023-02-06T05:43:15.543Z,99599.05
2023-02-06T05:45:45.441Z,99595.89
2023-02-06T05:48:15.444Z,99591.40
2023-02-06T05:50:45.723Z,99595.63
2023-02-06T05:53:18.162Z,99593.15
2023-02-06T05:55:48.405Z,99595.85
2023-02-06T05:58:18.760Z,99598.71
2023-02-06T06:00:48.907Z,99605.17
2023-02-06T06:03:19.617Z,99605.83
2023-02-06T06:05:50.121Z,99607.23
2023-02-06T06:08:20.484Z,99608.48
2023-02-06T06:10:52.607Z,99603.23
2023-02-06T06:13:22.757Z,99603.52
2023-02-06T06:15:53.547Z,99600.46
2023-02-06T06:18:23.956Z,99601.41
2023-02-06T06:20:54.001Z,99599.09
2023-02-06T06:23:23.914Z,99598.98
2023-02-06T06:25:53.803Z,99599.36
2023-02-06T06:28:23.817Z,99598.27
2023-02-06T06:31:02.249Z,99594.50
2023-02-06T06:33:32.620Z,99597.94
2023-02-06T06:36:02.622Z,99597.66
2023-02-06T06:38:32.845Z,99596.90
2023-02-06T06:41:03.238Z,99596.38
2023-02-06T06:43:33.175Z,99593.29
2023-02-06T06:46:05.019Z,99597.30
2023-02-06T06:48:36.992Z,99596.22
2023-02-06T06:51:08.203Z,99597.45
2023-02-06T06:53:39.769Z,99599.55
2023-02-06T06:56:13.191Z,99599.69
2023-02-06T06:58:43.599Z,99599.84
2023-02-06T07:01:14.795Z,99600.45
2023-02-06T07:03:47.063Z,99597.52
2023-02-06T07:06:17.721Z,99599.73
2023-02-06T07:08:47.719Z,99601.80
2023-02-06T07:11:18.439Z,99602.77
2023-02-06T07:13:49.299Z,99603.25
2023-02-06T07:16:19.406Z,99610.45
2023-02-06T07:18:49.493Z,99610.14
2023-02-06T07:21:21.343Z,99608.92
2023-02-06T07:23:51.319Z,99611.56
2023-02-06T07:26:21.670Z,99608.45
2023-02-06T07:28:52.533Z,99610.80
2023-02-06T07:31:22.754Z,99603.29
2023-02-06T07:33:53.029Z,99601.58
2023-02-06T07:36:23.310Z,99601.20
2023-02-06T07:38:53.699Z,99596.38
2023-02-06T07:41:24.123Z,99598.48
2023-02-06T07:43:54.990Z,99604.02
2023-02-06T07:46:25.076Z,99609.40
2023-02-06T07:48:55.209Z,99611.25
2023-02-06T07:51:25.028Z,99614.48
2023-02-06T07:53:55.755Z,99614.36
2023-02-06T07:56:25.994Z,99614.84
2023-02-06T07:58:56.558Z,99612.96
2023-02-06T08:01:26.692Z,99607.45
2023-02-06T08:03:57.050Z,99612.44
2023-02-06T08:06:27.724Z,99613.33
2023-02-06T08:08:58.455Z,99605.34
2023-02-06T08:11:30.677Z,99600.70
2023-02-06T08:14:02.774Z,99600.05
2023-02-06T08:16:33.216Z,99597.66
2023-02-06T08:19:03.790Z,99599.79
2023-02-06T08:21:37.009Z,99601.17
2023-02-06T08:24:07.761Z,99599.85
2023-02-06T08:26:37.866Z,99602.95
2023-02-06T08:29:08.934Z,99606.94
2023-02-06T08:31:41.137Z,99608.01
2023-02-06T08:34:14.924Z,99610.14
2023-02-06T08:36:45.460Z,99610.33
2023-02-06T08:39:17.190Z,99605.98
2023-02-06T08:41:47.408Z,99608.95
2023-02-06T08:44:19.349Z,99610.81
2023-02-06T08:46:52.416Z,99611.34
2023-02-06T08:49:27.379Z,99614.92
2023-02-06T08:51:57.469Z,99614.73
2023-02-06T08:54:27.400Z,99619.77
2023-02-06T08:57:00.669Z,99617.58
2023-02-06T08:59:30.776Z,99614.98
2023-02-06T09:02:01.204Z,99612.41
2023-02-06T09:04:34.263Z,99607.30
2023-02-06T09:07:04.311Z,99605.95
2023-02-06T09:09:34.487Z,99604.23
2023-02-06T09:12:05.099Z,99598.66
2023-02-06T09:14:35.582Z,99603.20
2023-02-06T09:17:05.723Z,99606.15
2023-02-06T09:19:35.693Z,99610.02
2023-02-06T09:22:07.189Z,99616.98
2023-02-06T09:24:37.765Z,99621.17
2023-02-06T09:27:07.805Z,99621.74
2023-02-06T09:29:37.758Z,99624.44
2023-02-06T09:32:07.795Z,99625.84
2023-02-06T09:34:37.835Z,99628.23
2023-02-06T09:37:07.872Z,99629.75
2023-02-06T09:39:38.143Z,99631.02
2023-02-06T09:42:11.794Z,99628.17
2023-02-06T09:44:48.796Z,99621.13
2023-02-06T09:47:25.657Z,99622.21
2023-02-06T09:49:59.055Z,99621.56
2023-02-06T09:52:43.914Z,99617.39
2023-02-06T09:55:23.499Z,99619.63
2023-02-06T09:57:59.252Z,99622.44
2023-02-06T10:00:41.355Z,99621.33
2023-02-06T10:03:29.932Z,99625.40
2023-02-06T10:06:11.904Z,99623.60
2023-02-06T10:08:47.512Z,99628.30
2023-02-06T10:11:25.695Z,99630.52
2023-02-06T10:14:00.431Z,99636.10
2023-02-06T10:16:39.222Z,99636.89
2023-02-06T10:19:17.292Z,99634.29
2023-02-06T10:21:52.582Z,99635.98
2023-02-06T10:24:32.761Z,99634.88
2023-02-06T10:27:09.763Z,99634.33
2023-02-06T10:29:41.062Z,99634.14
2023-02-06T10:32:23.710Z,99633.36
2023-02-06T10:35:13.758Z,99630.44
2023-02-06T10:38:20.400Z,99628.52
2023-02-06T10:40:59.268Z,99625.94
2023-02-06T10:43:39.498Z,99623.67
2023-02-06T10:46:29.079Z,99623.48
2023-02-06T10:49:05.404Z,99624.59
2023-02-06T10:51:38.677Z,99622.39
2023-02-06T10:54:16.609Z,99620.14
2023-02-06T10:56:48.467Z,99626.89
2023-02-06T10:59:26.771Z,99629.58
2023-02-06T11:02:13.990Z,99627.46
2023-02-06T11:04:49.241Z,99629.14
2023-02-06T11:07:24.769Z,99622.75
2023-02-06T11:09:55.076Z,99621.17
2023-02-06T11:12:36.095Z,99616.84
2023-02-06T11:15:18.149Z,99615.63
2023-02-06T11:17:48.329Z,99619.08
2023-02-06T11:20:22.895Z,99618.23
2023-02-06T11:22:53.863Z,99619.15
2023-02-06T11:25:28.721Z,99616.86
2023-02-06T11:28:00.342Z,99616.11
2023-02-06T11:30:34.907Z,99618.91
2023-02-06T11:33:08.862Z,99618.86
2023-02-06T11:35:49.713Z,99615.39
2023-02-06T11:38:21.842Z,99614.48
2023-02-06T11:41:00.823Z,99611.94
2023-02-06T11:43:32.958Z,99614.27
2023-02-06T11:46:16.451Z,99614.30
2023-02-06T11:48:48.626Z,99610.70
2023-02-06T11:51:19.321Z,99606.27
2023-02-06T11:54:03.292Z,99605.95
2023-02-06T11:56:32.265Z,99606.57
2023-02-06T11:59:22.748Z,99608.69
2023-02-06T12:01:52.773Z,99612.88
2023-02-06T12:04:26.465Z,99609.04
2023-02-06T12:07:03.195Z,99608.27
2023-02-06T12:09:33.550Z,99603.33
2023-02-06T12:12:13.749Z,99600.31
2023-02-06T12:14:48.190Z,99595.16
2023-02-06T12:17:25.748Z,99594.25
2023-02-06T12:20:03.202Z,99591.86
2023-02-06T12:22:39.831Z,99593.98
2023-02-06T12:25:25.199Z,99596.88
2023-02-06T12:27:58.573Z,99605.85
2023-02-06T12:30:35.560Z,99607.50
2023-02-06T12:33:12.881Z,99603.73
2023-02-06T12:35:46.121Z,99600.55
2023-02-06T12:38:22.588Z,99598.41
2023-02-06T12:41:03.596Z,99595.05
2023-02-06T12:43:36.413Z,99599.16
2023-02-06T12:46:13.977Z,99601.24
2023-02-06T12:48:51.273Z,99607.70
2023-02-06T12:51:26.700Z,99609.66
2023-02-06T12:54:01.055Z,99613.06
2023-02-06T12:56:36.022Z,99610.94
2023-02-06T12:59:31.229Z,99614.40
2023-02-06T13:02:16.383Z,99613.86
2023-02-06T13:04:47.416Z,99614.48
2023-02-06T13:07:21.924Z,99615.51
2023-02-06T13:09:55.491Z,99625.18
2023-02-06T13:12:27.847Z,99623.84
2023-02-06T13:15:00.183Z,99624.26
2023-02-06T13:17:36.459Z,99627.86
2023-02-06T13:20:10.144Z,99627.02
2023-02-06T13:22:46.670Z,99629.08
2023-02-06T13:25:49.013Z,99629.16
2023-02-06T13:29:08.077Z,99632.64
2023-02-06T13:31:38.713Z,99629.36
2023-02-06T13:34:14.371Z,99627.30
2023-02-06T13:36:53.357Z,99619.39
2023-02-06T13:39:34.918Z,99618.21
2023-02-06T13:42:32.680Z,99619.77
2023-02-06T13:45:06.558Z,99620.46
2023-02-06T13:48:05.924Z,99616.86
2023-02-06T13:50:54.526Z,99622.30
2023-02-06T13:54:05.759Z,99632.89
2023-02-06T13:56:47.933Z,99641.77
2023-02-06T13:59:20.549Z,99640.17
2023-02-06T14:01:50.737Z,99640.21
2023-02-06T14:04:24.983Z,99643.02
2023-02-06T14:07:27.000Z,99645.27
2023-02-06T14:10:33.939Z,99648.85
2023-02-06T14:13:20.092Z,99649.13
2023-02-06T14:15:59.375Z,99648.09
2023-02-06T14:18:43.178Z,99648.27
2023-02-06T14:21:27.716Z,99645.67
2023-02-06T14:24:10.575Z,99642.88
2023-02-06T14:26:49.130Z,99641.48
2023-02-06T14:29:28.604Z,99642.39
2023-02-06T14:32:24.083Z,99642.45
2023-02-06T14:35:15.200Z,99646.19
2023-02-06T14:38:06.228Z,99647.61
2023-02-06T14:40:42.156Z,99654.31
2023-02-06T14:43:17.713Z,99657.11
2023-02-06T14:46:05.399Z,99655.11
2023-02-06T14:48:40.490Z,99654.48
2023-02-06T14:51:22.478Z,99659.17
2023-02-06T14:53:57.565Z,99658.41
2023-02-06T14:56:31.014Z,99654.08
2023-02-06T14:59:10.754Z,99650.88
2023-02-06T15:01:41.415Z,99654.50
2023-02-06T15:04:13.514Z,99651.06
2023-02-06T15:06:50.374Z,99650.08
2023-02-06T15:09:29.497Z,99647.66
2023-02-06T15:12:02.068Z,99644.75
2023-02-06T15:14:35.042Z,99649.01
2023-02-06T15:17:05.072Z,99648.88
2023-02-06T15:19:36.247Z,99645.45
2023-02-06T15:22:11.957Z,99644.87
2023-02-06T15:25:06.999Z,99642.10
2023-02-06T15:27:38.799Z,99643.17
2023-02-06T15:30:21.672Z,99642.69
2023-02-06T15:32:53.438Z,99639.45
2023-02-06T15:35:26.028Z,99644.23
2023-02-06T15:37:57.251Z,99645.91
2023-02-06T15:40:31.096Z,99650.74
2023-02-06T15:43:02.282Z,99653.14
2023-02-06T15:45:36.073Z,99655.02
2023-02-06T15:48:12.861Z,99657.45
2023-02-06T15:50:54.540Z,99662.99
2023-02-06T15:53:33.029Z,99664.63
2023-02-06T15:56:04.940Z,99666.48
2023-02-06T15:58:36.719Z,99669.77
2023-02-06T16:01:13.972Z,99672.48
2023-02-06T16:03:44.361Z,99670.10
2023-02-06T16:06:17.822Z,99671.01
2023-02-06T16:08:54.611Z,99676.66
2023-02-06T16:11:47.005Z,99676.95
2023-02-06T16:14:24.840Z,99675.73
2023-02-06T16:17:02.632Z,99674.67
2023-02-06T16:19:47.027Z,99678.67
2023-02-06T16:22:22.690Z,99680.60
2023-02-06T16:24:54.673Z,99686.42
2023-02-06T16:27:26.831Z,99681.17
2023-02-06T16:29:58.126Z,99678.44
2023-02-06T16:32:31.393Z,99680.29
2023-02-06T16:35:01.716Z,99687.56
2023-02-06T16:37:32.140Z,99688.73
2023-02-06T16:40:03.587Z,99692.06
2023-02-06T16:42:37.780Z,99692.79
2023-02-06T16:45:10.688Z,99696.93
2023-02-06T16:47:42.088Z,99697.82
2023-02-06T16:50:12.619Z,99697.05
2023-02-06T16:52:47.911Z,99692.46
2023-02-06T16:55:23.197Z,99692.65
2023-02-06T16:57:57.270Z,99695.33
2023-02-06T17:00:31.263Z,99693.96
2023-02-06T17:03:01.788Z,99695.92
2023-02-06T17:05:32.973Z,99701.62
2023-02-06T17:08:04.346Z,99699.51
2023-02-06T17:10:34.763Z,99698.42
2023-02-06T17:13:06.432Z,99701.12
2023-02-06T17:15:36.590Z,99704.85
2023-02-06T17:18:07.073Z,99703.81
2023-02-06T17:20:39.953Z,99702.49
2023-02-06T17:23:11.273Z,99700.60
2023-02-06T17:25:43.754Z,99702.73
2023-02-06T17:28:33.812Z,99700.38
2023-02-06T17:31:04.088Z,99704.38
2023-02-06T17:33:34.289Z,99705.09
2023-02-06T17:36:07.970Z,99705.06
2023-02-06T17:38:37.946Z,99706.75
2023-02-06T17:41:08.537Z,99706.73
2023-02-06T17:43:38.541Z,99708.27
2023-02-06T17:46:21.665Z,99706.83
2023-02-06T17:48:55.488Z,99708.48
2023-02-06T17:51:26.956Z,99706.38
2023-02-06T17:54:00.144Z,99703.29
2023-02-06T17:56:30.711Z,99700.91
2023-02-06T17:59:21.165Z,99704.45
2023-02-06T18:01:52.357Z,99703.40
2023-02-06T18:04:25.718Z,99703.73
2023-02-06T18:06:58.888Z,99702.88
2023-02-06T18:09:29.683Z,99711.26
2023-02-06T18:11:59.903Z,99714.20
2023-02-06T18:14:31.542Z,99712.27
2023-02-06T18:17:03.334Z,99710.59
2023-02-06T18:19:41.084Z,99708.45
2023-02-06T18:22:14.792Z,99706.86
2023-02-06T18:24:56.635Z,99711.80
2023-02-06T18:27:27.284Z,99709.19
2023-02-06T18:29:57.375Z,99716.06
2023-02-06T18:32:28.274Z,99719.70
2023-02-06T18:34:59.976Z,99724.85
2023-02-06T18:37:30.937Z,99726.15
2023-02-06T18:40:04.108Z,99725.44
2023-02-06T18:42:54.006Z,99726.05
2023-02-06T18:45:35.549Z,99722.70
2023-02-06T18:48:14.224Z,99720.55
2023-02-06T18:50:45.170Z,99714.50
2023-02-06T18:53:18.871Z,99712.63
2023-02-06T18:56:01.234Z,99714.48
2023-02-06T18:58:34.562Z,99717.88
2023-02-06T19:01:15.662Z,99719.89
2023-02-06T19:03:50.053Z,99722.86
2023-02-06T19:06:26.266Z,99725.48
2023-02-06T19:08:59.396Z,99719.13
2023-02-06T19:11:32.323Z,99716.53
2023-02-06T19:14:05.742Z,99712.81
2023-02-06T19:16:40.724Z,99715.64
2023-02-06T19:19:12.954Z,99716.01
2023-02-06T19:21:49.695Z,99721.95
2023-02-06T19:24:23.950Z,99717.92
2023-02-06T19:26:58.853Z,99713.65
2023-02-06T19:29:35.997Z,99715.45
2023-02-06T19:32:12.308Z,99719.30
2023-02-06T19:34:45.851Z,99721.47
2023-02-06T19:37:19.896Z,99730.89
2023-02-06T19:39:51.046Z,99731.75
2023-02-06T19:42:25.048Z,99737.21
2023-02-06T19:45:01.736Z,99734.86
2023-02-06T19:47:38.144Z,99732.90
2023-02-06T19:50:25.998Z,99731.79
2023-02-06T19:53:13.917Z,99733.41
2023-02-06T19:55:52.497Z,99735.65
2023-02-06T19:58:31.928Z,99738.77
2023-02-06T20:01:09.697Z,99741.89
2023-02-06T20:03:40.189Z,99747.95
2023-02-06T20:06:12.183Z,99753.96
2023-02-06T20:08:43.906Z,99757.87
2023-02-06T20:11:16.886Z,99758.27
2023-02-06T20:13:51.583Z,99761.05
2023-02-06T20:16:25.428Z,99762.67
2023-02-06T20:18:56.797Z,99768.05
2023-02-06T20:21:31.107Z,99768.93
2023-02-06T20:24:03.493Z,99769.13
2023-02-06T20:26:35.601Z,99773.82
2023-02-06T20:29:06.707Z,99785.05
2023-02-06T20:31:37.575Z,99778.74
2023-02-06T20:34:07.585Z,99775.48
2023-02-06T20:36:37.796Z,99768.77
2023-02-06T20:39:08.801Z,99759.44
2023-02-06T20:41:39.247Z,99757.02
2023-02-06T20:44:17.932Z,99762.81
2023-02-06T20:46:51.315Z,99770.14
2023-02-06T20:49:23.267Z,99769.93
2023-02-06T20:51:57.372Z,99769.81
2023-02-06T20:54:31.592Z,99769.26
2023-02-06T20:57:04.824Z,99774.77
2023-02-06T20:59:35.321Z,99781.11
2023-02-06T21:02:05.654Z,99783.89
2023-02-06T21:04:35.623Z,99784.11
2023-02-06T21:07:05.883Z,99789.82
2023-02-06T21:09:36.321Z,99797.75
2023-02-06T21:12:07.312Z,99802.41
2023-02-06T21:14:37.627Z,99799.53
2023-02-06T21:17:08.063Z,99800.20
2023-02-06T21:19:38.564Z,99803.13
2023-02-06T21:22:08.711Z,99803.16
2023-02-06T21:24:40.359Z,99804.77
2023-02-06T21:27:10.936Z,99807.60
2023-02-06T21:29:41.401Z,99814.91
2023-02-06T21:32:14.307Z,99824.01
2023-02-06T21:34:44.956Z,99823.99
2023-02-06T21:37:15.039Z,99819.50
2023-02-06T21:39:45.348Z,99819.95
2023-02-06T21:42:15.758Z,99820.61
2023-02-06T21:44:45.853Z,99822.19
2023-02-06T21:47:15.930Z,99823.23
2023-02-06T21:49:46.434Z,99823.70
2023-02-06T21:52:17.127Z,99833.86
2023-02-06T21:54:47.139Z,99835.70
2023-02-06T21:57:17.380Z,99838.46
2023-02-06T21:59:47.307Z,99839.58
2023-02-06T22:02:17.533Z,99844.36
2023-02-06T22:04:47.989Z,99850.86
2023-02-06T22:07:19.380Z,99850.41
2023-02-06T22:09:49.589Z,99857.92
2023-02-06T22:12:21.509Z,99857.93
2023-02-06T22:14:51.689Z,99860.02
2023-02-06T22:17:21.429Z,99860.96
2023-02-06T22:19:53.141Z,99869.66
2023-02-06T22:22:23.350Z,99875.09
2023-02-06T22:24:53.953Z,99878.85
2023-02-06T22:27:25.245Z,99879.55
2023-02-06T22:29:55.359Z,99878.52
2023-02-06T22:32:25.597Z,99869.12
2023-02-06T22:34:58.454Z,99857.29
2023-02-06T22:37:30.909Z,99854.64
2023-02-06T22:40:01.040Z,99850.13
2023-02-06T22:42:31.373Z,99840.73
2023-02-06T22:45:01.696Z,99837.85
2023-02-06T22:47:32.874Z,99840.10
2023-02-06T22:50:02.967Z,99842.64
2023-02-06T22:52:50.805Z,99846.96
2023-02-06T22:55:20.828Z,99849.21
2023-02-06T22:57:50.733Z,99843.45
2023-02-06T23:00:21.382Z,99836.12
2023-02-06T23:02:51.375Z,99839.23
2023-02-06T23:05:21.689Z,99842.91
2023-02-06T23:07:51.566Z,99842.44
2023-02-06T23:10:21.682Z,99837.79
2023-02-06T23:12:51.748Z,99833.07
2023-02-06T23:15:21.938Z,99838.02
2023-02-06T23:17:52.419Z,99842.74
2023-02-06T23:20:22.569Z,99848.02
2023-02-06T23:22:52.447Z,99844.48
2023-02-06T23:25:22.469Z,99841.05
2023-02-06T23:27:52.671Z,99838.91
2023-02-06T23:30:23.460Z,99838.30
2023-02-06T23:32:53.465Z,99835.58
2023-02-06T23:35:23.318Z,99840.30
2023-02-06T23:37:53.446Z,99846.60
2023-02-06T23:40:23.238Z,99834.33
2023-02-06T23:42:53.736Z,99830.23
2023-02-06T23:45:23.915Z,99831.49
2023-02-06T23:47:54.796Z,99838.60
2023-02-06T23:50:25.729Z,99834.42
2023-02-06T23:52:56.265Z,99825.80
2023-02-06T23:55:28.101Z,99821.40
2023-02-06T23:57:58.618Z,99816.98
